SAOU/LUQ METAR and TAF weather

Enter ICAO airport designator
Station Type Date Time Source
SAOU METAR 2019/04/21 20:30 UTC NOAA

SAOU 212030Z 14006KT 9999 FEW030 SCT035 BKN100 15/14 Q1015 RERA


Station Type Date Time Source
SAOU Decoded METAR 2019/04/21 20:30 UTC NOAA

San Luis Aerodrome, Argentina (SAOU) 33-16S 066-21W 713M
Apr 21, 2019 - 04:30 PM EDT / 2019.04.21 2030 UTC
Wind: from the SE (140 degrees) at 7 MPH (6 KT):0
Visibility: greater than 7 mile(s):0
Sky conditions: mostly cloudy
Temperature: 59 F (15 C)
Dew Point: 57 F (14 C)
Relative Humidity: 93%
Pressure (altimeter): 29.97 in. Hg (1015 hPa)
ob: SAOU 212030Z 14006KT 9999 FEW030 SCT035 BKN100 15/14 Q1015 RERA
cycle: 20

Station Type Date Time Source
SAOU TAF 2019/04/18 06:27 UTC NOAA

TAF SAOU 180500Z 1806/1906 36005KT 9999 FEW030 TN11/1809Z TX26/1819Z
BECMG 1817/1819 14005KT

Example: see airport list